Time;durP1;ratioP1;P1;durP2;ratioP2;P2;SDS_P1;SDS_P2;PMS_P1;PMS_P2;Temp;Humidity;BMP_temperature;BMP_pressure;BME280_temperature;BME280_humidity;BME280_pressure;Samples;Min_cycle;Max_cycle;Signal;HPM_P1;HPM_P2
2022/06/22 00:03:10;;;;;;;3.33;3.03;;;;;;;;;;10490196;28;20067;-67
2022/06/22 00:08:17;;;;;;;3.78;3.05;;;;;;;;;;10477799;28;20048;-67
2022/06/22 00:13:23;;;;;;;7.90;3.40;;;;;;;;;;10491114;28;20292;-68
2022/06/22 00:18:33;;;;;;;3.78;3.17;;;;;;;;;;10490484;28;20110;-68
2022/06/22 00:23:38;;;;;;;3.70;3.28;;;;;;;;;;10477819;28;20089;-67
2022/06/22 00:29:00;;;;;;;6.93;3.35;;;;;;;;;;10474532;28;20056;-66
2022/06/22 00:34:14;;;;;;;6.82;4.03;;;;;;;;;;10468302;28;20045;-67
2022/06/22 00:39:22;;;;;;;4.97;3.70;;;;;;;;;;10456928;28;20044;-67
2022/06/22 00:44:29;;;;;;;4.97;3.92;;;;;;;;;;10490487;28;20049;-67
2022/06/22 00:49:33;;;;;;;7.97;5.07;;;;;;;;;;10484934;28;20053;-66
2022/06/22 00:54:37;;;;;;;5.35;4.00;;;;;;;;;;10489601;28;20048;-67
2022/06/22 00:59:47;;;;;;;5.22;3.78;;;;;;;;;;10489751;28;20087;-67
2022/06/22 01:04:54;;;;;;;7.47;4.13;;;;;;;;;;10489522;28;20049;-68
2022/06/22 01:10:03;;;;;;;7.93;3.95;;;;;;;;;;10489579;28;20052;-67
2022/06/22 01:15:18;;;;;;;7.30;4.60;;;;;;;;;;10489146;28;20049;-67
2022/06/22 01:20:30;;;;;;;8.00;4.40;;;;;;;;;;10486575;28;20057;-68
2022/06/22 01:25:54;;;;;;;11.13;4.75;;;;;;;;;;10489587;28;20041;-68
2022/06/22 01:31:05;;;;;;;10.20;4.40;;;;;;;;;;10475436;28;20053;-67
2022/06/22 01:36:11;;;;;;;9.95;5.07;;;;;;;;;;10488954;28;20228;-67
2022/06/22 01:41:27;;;;;;;7.80;5.20;;;;;;;;;;10494197;28;20048;-68
2022/06/22 01:46:42;;;;;;;8.60;5.32;;;;;;;;;;10483654;28;20332;-68
2022/06/22 01:51:46;;;;;;;;;;;;;;;;;;10483842;28;20347;-68
2022/06/22 01:56:54;;;;;;;7.38;4.60;;;;;;;;;;10482935;28;19923;-68
2022/06/22 02:02:01;;;;;;;6.63;4.13;;;;;;;;;;10482388;28;20055;-68
2022/06/22 02:12:45;;;;;;;7.95;4.38;;;;;;;;;;10481438;28;20071;-68
2022/06/22 02:17:50;;;;;;;6.22;4.00;;;;;;;;;;10480029;28;20052;-68
2022/06/22 02:22:56;;;;;;;6.15;3.78;;;;;;;;;;10485750;28;20045;-67
2022/06/22 02:27:58;;;;;;;5.68;4.57;;;;;;;;;;10495231;28;20061;-68
2022/06/22 02:33:02;;;;;;;4.70;3.45;;;;;;;;;;10495438;28;20045;-68
2022/06/22 02:38:07;;;;;;;4.17;3.77;;;;;;;;;;10495216;28;20045;-68
2022/06/22 02:48:45;;;;;;;6.95;3.90;;;;;;;;;;10476737;28;20053;-67
2022/06/22 02:53:48;;;;;;;4.75;4.10;;;;;;;;;;10487589;28;20057;-68
2022/06/22 02:58:50;;;;;;;10.90;10.23;;;;;;;;;;10490708;28;20045;-67
2022/06/22 03:04:00;;;;;;;6.28;3.50;;;;;;;;;;10478055;28;20064;-67
2022/06/22 03:09:05;;;;;;;4.30;4.00;;;;;;;;;;10481886;28;20077;-67
2022/06/22 03:14:16;;;;;;;3.90;3.55;;;;;;;;;;10475910;28;20368;-68
2022/06/22 03:19:28;;;;;;;3.38;3.08;;;;;;;;;;10489010;28;20052;-68
2022/06/22 03:24:38;;;;;;;8.05;7.45;;;;;;;;;;10493422;28;20359;-68
2022/06/22 03:29:45;;;;;;;9.27;8.57;;;;;;;;;;10492956;28;20083;-68
2022/06/22 03:34:51;;;;;;;2.72;2.38;;;;;;;;;;10493040;28;20091;-68
2022/06/22 03:39:59;;;;;;;3.45;2.33;;;;;;;;;;10492422;28;20329;-68
2022/06/22 03:45:04;;;;;;;3.08;2.35;;;;;;;;;;10490325;28;20380;-68
2022/06/22 03:50:16;;;;;;;3.50;3.20;;;;;;;;;;10482610;28;20374;-69
2022/06/22 03:55:23;;;;;;;2.72;2.60;;;;;;;;;;10492161;28;20049;-68
2022/06/22 04:00:25;;;;;;;6.25;2.05;;;;;;;;;;10489905;28;20041;-69
2022/06/22 04:05:36;;;;;;;3.25;1.85;;;;;;;;;;10490736;28;20087;-69
2022/06/22 04:10:44;;;;;;;5.25;1.90;;;;;;;;;;10491710;28;20040;-69
2022/06/22 04:15:53;;;;;;;0.85;0.85;;;;;;;;;;10491095;28;20041;-68
2022/06/22 04:21:02;;;;;;;0.10;0.10;;;;;;;;;;10486970;28;20249;-68
2022/06/22 04:26:10;;;;;;;0.00;0.00;;;;;;;;;;10491076;28;20240;-69
2022/06/22 04:31:18;;;;;;;0.00;0.00;;;;;;;;;;10490737;28;20045;-69
2022/06/22 04:36:26;;;;;;;0.00;0.00;;;;;;;;;;10477077;28;20057;-69
2022/06/22 04:41:31;;;;;;;0.00;0.00;;;;;;;;;;10490281;28;20236;-67
2022/06/22 04:46:35;;;;;;;0.00;0.00;;;;;;;;;;10490487;28;20068;-69
2022/06/22 04:51:42;;;;;;;0.00;0.00;;;;;;;;;;10475718;28;20088;-69
2022/06/22 04:56:51;;;;;;;0.00;0.00;;;;;;;;;;10476189;28;20056;-69
2022/06/22 05:01:57;;;;;;;0.00;0.00;;;;;;;;;;10475843;28;20053;-69
2022/06/22 05:07:05;;;;;;;0.00;0.00;;;;;;;;;;10475892;28;20053;-69
2022/06/22 05:12:12;;;;;;;0.00;0.00;;;;;;;;;;10484637;28;20048;-69
2022/06/22 05:17:21;;;;;;;0.00;0.00;;;;;;;;;;10488073;28;20049;-69
2022/06/22 05:22:25;;;;;;;0.10;0.10;;;;;;;;;;10475016;28;20060;-69
2022/06/22 05:27:35;;;;;;;0.10;0.10;;;;;;;;;;10487170;28;20049;-69
2022/06/22 05:32:41;;;;;;;0.15;0.15;;;;;;;;;;10475521;28;20064;-69
2022/06/22 05:37:48;;;;;;;0.20;0.20;;;;;;;;;;10475441;28;20064;-69
2022/06/22 05:42:52;;;;;;;0.30;0.30;;;;;;;;;;10474169;28;20076;-69
2022/06/22 05:47:56;;;;;;;0.50;0.50;;;;;;;;;;10474905;28;20086;-69
2022/06/22 05:53:06;;;;;;;0.60;0.60;;;;;;;;;;10488669;28;20294;-69
2022/06/22 05:58:14;;;;;;;0.80;0.80;;;;;;;;;;10473865;28;20056;-70
2022/06/22 06:03:27;;;;;;;1.10;1.10;;;;;;;;;;10475187;28;20053;-69
2022/06/22 06:08:40;;;;;;;1.40;1.40;;;;;;;;;;10475476;28;20056;-70
2022/06/22 06:13:45;;;;;;;1.80;1.80;;;;;;;;;;10471565;28;20045;-70
2022/06/22 06:18:49;;;;;;;2.47;2.47;;;;;;;;;;10474417;28;20049;-68
2022/06/22 06:23:56;;;;;;;3.00;2.90;;;;;;;;;;10474682;28;20053;-69
2022/06/22 06:29:17;;;;;;;3.65;3.55;;;;;;;;;;10493813;28;20256;-69
2022/06/22 06:34:24;;;;;;;4.22;4.13;;;;;;;;;;10495533;28;20045;-69
2022/06/22 06:39:33;;;;;;;6.00;5.80;;;;;;;;;;10481277;28;20049;-69
2022/06/22 06:44:39;;;;;;;7.87;7.57;;;;;;;;;;10494140;28;20052;-69
2022/06/22 06:49:46;;;;;;;9.57;9.18;;;;;;;;;;10489563;28;20061;-69
2022/06/22 06:54:57;;;;;;;12.48;11.95;;;;;;;;;;10494409;28;20236;-68
2022/06/22 07:00:05;;;;;;;15.20;14.50;;;;;;;;;;10494299;28;20048;-69
2022/06/22 07:05:11;;;;;;;18.20;17.30;;;;;;;;;;10480993;28;20331;-69
2022/06/22 07:10:22;;;;;;;21.30;20.20;;;;;;;;;;10493475;28;20036;-69
2022/06/22 07:15:31;;;;;;;24.40;23.15;;;;;;;;;;10492712;28;20056;-69
2022/06/22 07:20:40;;;;;;;28.42;26.92;;;;;;;;;;10480525;28;20052;-69
2022/06/22 07:25:45;;;;;;;31.25;29.55;;;;;;;;;;10492812;28;20079;-69
2022/06/22 07:30:52;;;;;;;34.25;32.35;;;;;;;;;;10493282;28;20040;-69
2022/06/22 07:36:00;;;;;;;38.38;36.22;;;;;;;;;;10493386;28;20236;-69
2022/06/22 07:41:20;;;;;;;43.10;40.60;;;;;;;;;;10475826;28;20045;-69
2022/06/22 07:46:30;;;;;;;47.28;44.47;;;;;;;;;;10478580;28;20049;-68
2022/06/22 07:51:34;;;;;;;52.05;48.95;;;;;;;;;;10481545;28;20052;-69
2022/06/22 07:56:48;;;;;;;56.58;53.13;;;;;;;;;;10478175;28;20094;-69
2022/06/22 08:01:51;;;;;;;;;;;;;;;;;;10491670;28;20048;-68
2022/06/22 08:06:57;;;;;;;66.45;62.25;;;;;;;;;;10491996;28;19924;-68
2022/06/22 08:12:04;;;;;;;69.07;64.68;;;;;;;;;;10492103;28;20052;-68
2022/06/22 08:17:12;;;;;;;72.88;68.18;;;;;;;;;;10477248;28;20324;-68
2022/06/22 08:22:14;;;;;;;77.40;72.30;;;;;;;;;;10483145;28;20222;-69
2022/06/22 08:27:21;;;;;;;82.28;76.72;;;;;;;;;;10491246;28;20048;-70
2022/06/22 08:32:27;;;;;;;86.78;80.82;;;;;;;;;;10491114;28;20049;-68
2022/06/22 08:37:33;;;;;;;92.03;85.60;;;;;;;;;;10491968;28;20040;-70
2022/06/22 08:42:44;;;;;;;;;;;;;;;;;;10477101;28;20052;-69
2022/06/22 08:48:19;;;;;;;80.10;74.40;;;;;;;;;;10484265;28;20045;-69
2022/06/22 08:53:37;;;;;;;84.30;78.20;;;;;;;;;;10473654;28;20305;-69
2022/06/22 08:59:04;;;;;;;90.90;84.20;;;;;;;;;;10478113;28;20049;-69
2022/06/22 09:04:22;;;;;;;72.50;67.67;;;;;;;;;;10474915;28;20426;-70
2022/06/22 09:09:39;;;;;;;52.80;49.00;;;;;;;;;;10490673;28;20041;-68
2022/06/22 09:14:59;;;;;;;86.80;80.45;;;;;;;;;;10490033;28;20053;-68
2022/06/22 09:20:21;;;;;;;92.73;86.33;;;;;;;;;;10488308;28;20071;-69
2022/06/22 09:25:29;;;;;;;75.10;70.20;;;;;;;;;;10490129;28;20050;-67
2022/06/22 09:30:48;;;;;;;59.92;56.22;;;;;;;;;;10489452;28;20295;-68
2022/06/22 09:36:23;;;;;;;49.42;46.53;;;;;;;;;;10488350;28;20053;-67
2022/06/22 09:41:30;;;;;;;;;;;;;;;;;;10489746;28;20041;-68
2022/06/22 09:47:03;;;;;;;25.83;24.52;;;;;;;;;;10474606;28;19932;-67
2022/06/22 09:52:28;;;;;;;3.67;3.58;;;;;;;;;;10475150;28;20291;-68
2022/06/22 09:57:50;;;;;;;0.00;0.00;;;;;;;;;;10476130;28;20049;-68
2022/06/22 10:03:20;;;;;;;0.00;0.00;;;;;;;;;;10482180;28;20064;-68
2022/06/22 10:08:42;;;;;;;0.00;0.00;;;;;;;;;;10496839;28;20241;-68
2022/06/22 10:14:05;;;;;;;0.00;0.00;;;;;;;;;;10494825;28;20053;-68
2022/06/22 10:19:29;;;;;;;0.00;0.00;;;;;;;;;;10496576;28;20356;-67
2022/06/22 10:24:49;;;;;;;0.00;0.00;;;;;;;;;;10482544;28;20075;-68
2022/06/22 10:30:11;;;;;;;0.00;0.00;;;;;;;;;;10480121;28;20116;-67
2022/06/22 10:35:32;;;;;;;0.00;0.00;;;;;;;;;;10482599;28;20061;-68
2022/06/22 10:46:12;;;;;;;0.00;0.00;;;;;;;;;;10481211;28;20072;-67
2022/06/22 10:51:29;;;;;;;0.00;0.00;;;;;;;;;;10481443;28;20355;-68
2022/06/22 10:56:49;;;;;;;0.00;0.00;;;;;;;;;;10494789;28;20319;-67
2022/06/22 11:02:21;;;;;;;0.00;0.00;;;;;;;;;;10481303;28;20095;-67
2022/06/22 11:07:59;;;;;;;0.00;0.00;;;;;;;;;;10494544;28;20104;-69
2022/06/22 11:13:15;;;;;;;0.00;0.00;;;;;;;;;;10477760;28;20366;-68
2022/06/22 11:18:43;;;;;;;0.00;0.00;;;;;;;;;;10480567;28;20240;-67
2022/06/22 11:24:02;;;;;;;0.00;0.00;;;;;;;;;;10481843;28;20044;-67
2022/06/22 11:35:24;;;;;;;0.00;0.00;;;;;;;;;;10480100;28;20064;-68
2022/06/22 11:40:48;;;;;;;0.00;0.00;;;;;;;;;;10493043;28;20048;-68
2022/06/22 11:46:02;;;;;;;0.00;0.00;;;;;;;;;;10477931;28;20052;-68
2022/06/22 11:51:13;;;;;;;0.00;0.00;;;;;;;;;;10484659;28;20057;-68
2022/06/22 11:56:26;;;;;;;0.00;0.00;;;;;;;;;;10493341;28;20048;-68
2022/06/22 12:01:46;;;;;;;0.00;0.00;;;;;;;;;;10493012;28;20045;-68
2022/06/22 12:07:02;;;;;;;0.00;0.00;;;;;;;;;;10479890;28;20064;-67
2022/06/22 12:12:36;;;;;;;0.00;0.00;;;;;;;;;;10491944;28;20048;-67
2022/06/22 12:17:58;;;;;;;0.00;0.00;;;;;;;;;;10478262;28;20052;-67
2022/06/22 12:23:10;;;;;;;0.00;0.00;;;;;;;;;;10482123;28;20044;-67
2022/06/22 12:28:30;;;;;;;0.00;0.00;;;;;;;;;;10476163;28;20268;-67
2022/06/22 12:33:38;;;;;;;0.00;0.00;;;;;;;;;;10490856;28;20159;-67
2022/06/22 12:38:45;;;;;;;0.00;0.00;;;;;;;;;;10477120;28;20048;-68
2022/06/22 12:44:15;;;;;;;0.05;0.05;;;;;;;;;;10475819;28;20057;-72
2022/06/22 12:49:45;;;;;;;0.03;0.03;;;;;;;;;;10477565;28;20352;-67
2022/06/22 12:54:55;;;;;;;0.10;0.10;;;;;;;;;;10478446;28;20324;-67
2022/06/22 13:00:04;;;;;;;0.22;0.22;;;;;;;;;;10476430;28;20218;-67
2022/06/22 13:05:15;;;;;;;0.20;0.20;;;;;;;;;;10476069;28;20049;-67
2022/06/22 13:10:19;;;;;;;0.52;0.32;;;;;;;;;;10489929;28;20048;-68
2022/06/22 13:15:28;;;;;;;1.02;0.35;;;;;;;;;;10475136;28;20060;-67
2022/06/22 13:20:46;;;;;;;0.40;0.30;;;;;;;;;;10477011;28;20079;-68
2022/06/22 13:25:53;;;;;;;0.57;0.38;;;;;;;;;;10489490;28;20052;-68
2022/06/22 13:30:58;;;;;;;0.35;0.22;;;;;;;;;;10475800;28;20056;-67
2022/06/22 13:36:07;;;;;;;0.30;0.30;;;;;;;;;;10491284;28;20048;-69
2022/06/22 13:41:25;;;;;;;0.50;0.40;;;;;;;;;;10496714;28;20056;-71
2022/06/22 13:46:43;;;;;;;0.38;0.38;;;;;;;;;;10496771;28;20045;-70
2022/06/22 13:52:19;;;;;;;1.08;0.52;;;;;;;;;;10484209;28;20337;-69
2022/06/22 13:57:34;;;;;;;1.58;1.05;;;;;;;;;;10498567;28;20049;-70
2022/06/22 14:02:58;;;;;;;1.00;0.70;;;;;;;;;;10492283;28;20049;-69
2022/06/22 14:08:14;;;;;;;0.60;0.60;;;;;;;;;;10494616;28;20112;-70
2022/06/22 14:13:29;;;;;;;2.65;1.10;;;;;;;;;;10495868;28;20053;-71
2022/06/22 14:18:38;;;;;;;4.53;1.23;;;;;;;;;;10492295;28;20045;-70
2022/06/22 14:23:42;;;;;;;1.30;1.02;;;;;;;;;;10474084;28;20237;-67
2022/06/22 14:28:52;;;;;;;1.15;1.02;;;;;;;;;;10481206;28;20056;-67
2022/06/22 14:34:01;;;;;;;1.08;0.98;;;;;;;;;;10496042;28;20052;-67
2022/06/22 14:39:15;;;;;;;2.92;1.38;;;;;;;;;;10480659;28;20064;-67
2022/06/22 14:44:38;;;;;;;0.93;0.90;;;;;;;;;;10481983;28;20053;-68
2022/06/22 14:49:47;;;;;;;3.67;1.48;;;;;;;;;;10480592;28;20131;-70
2022/06/22 14:54:59;;;;;;;1.52;0.98;;;;;;;;;;10479326;28;20053;-69
2022/06/22 15:00:20;;;;;;;1.52;1.40;;;;;;;;;;10494872;28;20048;-69
2022/06/22 15:05:28;;;;;;;2.15;1.20;;;;;;;;;;10494536;28;20059;-70
2022/06/22 15:10:38;;;;;;;1.85;1.15;;;;;;;;;;10493217;28;20252;-70
2022/06/22 15:15:46;;;;;;;2.63;1.35;;;;;;;;;;10493968;28;20068;-69
2022/06/22 15:20:56;;;;;;;3.85;1.80;;;;;;;;;;10489293;28;20048;-74
2022/06/22 15:26:07;;;;;;;5.68;1.58;;;;;;;;;;10494167;28;20048;-68
2022/06/22 15:31:34;;;;;;;7.28;1.55;;;;;;;;;;10492999;28;20044;-71
2022/06/22 15:36:41;;;;;;;1.35;1.25;;;;;;;;;;10493153;28;20056;-70
2022/06/22 15:41:55;;;;;;;2.00;1.50;;;;;;;;;;10492979;28;20041;-70
2022/06/22 15:47:02;;;;;;;3.08;1.58;;;;;;;;;;10483880;28;20052;-71
2022/06/22 15:52:15;;;;;;;4.25;1.92;;;;;;;;;;10478943;28;20053;-69
2022/06/22 15:57:23;;;;;;;3.40;2.60;;;;;;;;;;10489606;28;20041;-70
2022/06/22 16:02:38;;;;;;;3.90;1.60;;;;;;;;;;10486846;28;20092;-69
2022/06/22 16:07:44;;;;;;;4.97;1.45;;;;;;;;;;10490795;28;20041;-68
2022/06/22 16:18:19;;;;;;;3.95;1.95;;;;;;;;;;10488199;28;20041;-71
2022/06/22 16:23:32;;;;;;;1.80;1.42;;;;;;;;;;10480425;28;20048;-68
2022/06/22 16:28:43;;;;;;;2.90;1.88;;;;;;;;;;10477458;28;20048;-69
2022/06/22 16:33:55;;;;;;;3.92;2.22;;;;;;;;;;10467187;28;20336;-68
2022/06/22 16:39:07;;;;;;;14.48;2.80;;;;;;;;;;10486791;28;20071;-70
2022/06/22 16:44:18;;;;;;;3.80;1.95;;;;;;;;;;10486625;28;20240;-71
2022/06/22 16:49:25;;;;;;;6.20;2.85;;;;;;;;;;10476169;28;20060;-69
2022/06/22 16:54:32;;;;;;;4.88;1.98;;;;;;;;;;10484465;28;20044;-70
2022/06/22 16:59:43;;;;;;;4.88;1.90;;;;;;;;;;10488304;28;20079;-70
2022/06/22 17:04:55;;;;;;;3.78;1.70;;;;;;;;;;10489097;28;20053;-71
2022/06/22 17:10:06;;;;;;;5.22;1.83;;;;;;;;;;10474358;28;20328;-70
2022/06/22 17:15:11;;;;;;;1.83;1.38;;;;;;;;;;10486651;28;20041;-69
2022/06/22 17:20:18;;;;;;;3.22;1.80;;;;;;;;;;10476281;28;20045;-70
2022/06/22 17:25:38;;;;;;;2.92;1.45;;;;;;;;;;10488504;28;20049;-71
2022/06/22 17:30:46;;;;;;;1.70;1.30;;;;;;;;;;10488071;28;20040;-69
2022/06/22 17:36:00;;;;;;;3.47;1.70;;;;;;;;;;10483999;28;20036;-70
2022/06/22 17:41:09;;;;;;;4.75;1.70;;;;;;;;;;10489051;28;20048;-72
2022/06/22 17:46:16;;;;;;;4.32;1.80;;;;;;;;;;10463712;28;20048;-70
2022/06/22 17:51:29;;;;;;;6.53;1.63;;;;;;;;;;10468519;28;20258;-70
2022/06/22 17:56:32;;;;;;;2.55;1.60;;;;;;;;;;10489045;28;20052;-70
2022/06/22 18:01:43;;;;;;;3.27;1.63;;;;;;;;;;10487932;28;20139;-71
2022/06/22 18:06:51;;;;;;;4.85;2.08;;;;;;;;;;10487638;28;20316;-71
2022/06/22 18:12:03;;;;;;;4.82;1.50;;;;;;;;;;10488190;28;20037;-70
2022/06/22 18:17:13;;;;;;;2.97;2.03;;;;;;;;;;10487695;28;20347;-69
2022/06/22 18:22:19;;;;;;;3.20;1.63;;;;;;;;;;10483205;28;20055;-69
2022/06/22 18:27:29;;;;;;;1.45;1.35;;;;;;;;;;10495512;28;20049;-70
2022/06/22 18:32:36;;;;;;;1.60;1.50;;;;;;;;;;10496278;28;20041;-69
2022/06/22 18:37:46;;;;;;;4.32;3.08;;;;;;;;;;10481924;28;20056;-69
2022/06/22 18:42:54;;;;;;;3.45;1.70;;;;;;;;;;10496309;28;20036;-70
2022/06/22 18:48:05;;;;;;;3.35;1.98;;;;;;;;;;10496212;28;20040;-69
2022/06/22 18:53:16;;;;;;;2.00;1.80;;;;;;;;;;10479525;28;20036;-68
2022/06/22 18:58:22;;;;;;;3.28;2.67;;;;;;;;;;10472013;28;20049;-69
2022/06/22 19:03:29;;;;;;;2.10;1.45;;;;;;;;;;10494036;28;20049;-69
2022/06/22 19:08:34;;;;;;;2.28;1.55;;;;;;;;;;10479562;28;20072;-68
2022/06/22 19:13:41;;;;;;;2.97;1.70;;;;;;;;;;10494290;28;20041;-69
2022/06/22 19:19:01;;;;;;;1.95;1.83;;;;;;;;;;10479341;28;20045;-69
2022/06/22 19:24:29;;;;;;;1.98;1.77;;;;;;;;;;10480062;28;20244;-67
2022/06/22 19:29:35;;;;;;;2.55;1.98;;;;;;;;;;10457391;28;20107;-69
2022/06/22 19:34:53;;;;;;;3.10;2.60;;;;;;;;;;10492265;28;20053;-67
2022/06/22 19:40:02;;;;;;;5.30;3.33;;;;;;;;;;10476459;28;20055;-70
2022/06/22 19:45:12;;;;;;;3.97;3.10;;;;;;;;;;10483646;28;20041;-69
2022/06/22 19:50:29;;;;;;;4.57;3.75;;;;;;;;;;10438022;28;20264;-72
2022/06/22 19:55:37;;;;;;;3.33;3.03;;;;;;;;;;10468150;28;20065;-69
2022/06/22 20:00:44;;;;;;;3.90;3.05;;;;;;;;;;10526715;28;20044;-69
2022/06/22 20:05:52;;;;;;;4.43;3.63;;;;;;;;;;10490295;28;20032;-68
2022/06/22 20:10:57;;;;;;;8.07;5.65;;;;;;;;;;10477327;28;20056;-68
2022/06/22 20:16:08;;;;;;;11.98;5.97;;;;;;;;;;10490759;28;20041;-68
2022/06/22 20:21:23;;;;;;;10.02;7.25;;;;;;;;;;10450727;28;20045;-68
2022/06/22 20:26:40;;;;;;;5.10;4.60;;;;;;;;;;10477411;28;20340;-68
2022/06/22 20:31:48;;;;;;;4.85;3.70;;;;;;;;;;10485788;28;20363;-68
2022/06/22 20:36:59;;;;;;;3.50;2.83;;;;;;;;;;10488113;28;20052;-67
2022/06/22 20:42:06;;;;;;;5.15;2.90;;;;;;;;;;10490637;28;20240;-68
2022/06/22 20:47:19;;;;;;;3.25;2.95;;;;;;;;;;10489277;28;20048;-69
2022/06/22 20:52:24;;;;;;;4.38;3.40;;;;;;;;;;10453024;28;20057;-68
2022/06/22 20:57:32;;;;;;;3.33;3.03;;;;;;;;;;10489993;28;20037;-68
2022/06/22 21:02:40;;;;;;;4.15;3.17;;;;;;;;;;10476010;28;20049;-68
2022/06/22 21:07:44;;;;;;;5.57;3.03;;;;;;;;;;10489471;28;20060;-68
2022/06/22 21:12:55;;;;;;;6.43;4.10;;;;;;;;;;10484117;28;20347;-69
2022/06/22 21:18:20;;;;;;;5.82;3.92;;;;;;;;;;10435565;28;20049;-68
2022/06/22 21:23:35;;;;;;;4.25;3.58;;;;;;;;;;10474835;28;20049;-67
2022/06/22 21:34:01;;;;;;;3.28;3.05;;;;;;;;;;10475683;28;20049;-68
2022/06/22 21:39:11;;;;;;;5.40;3.60;;;;;;;;;;10487638;28;20051;-68
2022/06/22 21:44:23;;;;;;;5.28;3.55;;;;;;;;;;10488713;28;20052;-68
2022/06/22 21:49:49;;;;;;;3.92;3.53;;;;;;;;;;10484224;28;20069;-69
2022/06/22 21:55:03;;;;;;;6.53;4.07;;;;;;;;;;10474049;28;20049;-68
2022/06/22 22:00:11;;;;;;;8.63;5.80;;;;;;;;;;10496640;28;20371;-68
2022/06/22 22:05:38;;;;;;;5.45;4.90;;;;;;;;;;10442387;28;20076;-68
2022/06/22 22:10:55;;;;;;;4.60;3.85;;;;;;;;;;10445398;28;20445;-68
2022/06/22 22:16:01;;;;;;;4.45;4.03;;;;;;;;;;10496127;28;20052;-68
2022/06/22 22:21:21;;;;;;;6.35;4.05;;;;;;;;;;10491598;28;20236;-67
2022/06/22 22:26:29;;;;;;;7.05;3.83;;;;;;;;;;10496411;28;20045;-67
2022/06/22 22:31:31;;;;;;;4.75;3.50;;;;;;;;;;10495912;28;20097;-68
2022/06/22 22:36:35;;;;;;;4.97;3.53;;;;;;;;;;10482322;28;20048;-68
2022/06/22 22:41:39;;;;;;;3.80;3.47;;;;;;;;;;10495193;28;20060;-68
2022/06/22 22:46:47;;;;;;;3.93;3.53;;;;;;;;;;10459219;28;20058;-68
2022/06/22 22:51:54;;;;;;;4.05;3.55;;;;;;;;;;10477851;28;20053;-68
2022/06/22 22:57:04;;;;;;;5.15;4.38;;;;;;;;;;10494795;28;20044;-68
2022/06/22 23:02:27;;;;;;;7.72;3.60;;;;;;;;;;10494052;28;20128;-68
2022/06/22 23:07:30;;;;;;;3.90;3.50;;;;;;;;;;10492248;28;20083;-68
2022/06/22 23:12:34;;;;;;;7.03;4.00;;;;;;;;;;10493442;28;20374;-68
2022/06/22 23:17:36;;;;;;;6.47;3.80;;;;;;;;;;10492976;28;20072;-68
2022/06/22 23:22:38;;;;;;;4.68;4.22;;;;;;;;;;10485798;28;20049;-68
2022/06/22 23:27:42;;;;;;;11.80;7.00;;;;;;;;;;10492324;28;20045;-68
2022/06/22 23:32:45;;;;;;;;;;;;;;;;;;10493309;28;20045;-68
2022/06/22 23:37:53;;;;;;;6.70;6.03;;;;;;;;;;10478753;28;19920;-68
2022/06/22 23:43:01;;;;;;;7.13;4.55;;;;;;;;;;10492123;28;20304;-68
2022/06/22 23:48:12;;;;;;;6.45;4.45;;;;;;;;;;10491524;28;20044;-68
2022/06/22 23:53:26;;;;;;;8.10;5.50;;;;;;;;;;10492196;28;20049;-68
2022/06/22 23:58:34;;;;;;;7.03;5.13;;;;;;;;;;10491829;28;20044;-68
